createdAt,value
2022-09-17T00:02:00.367Z,99189.53
2022-09-17T00:04:27.171Z,99181.41
2022-09-17T00:06:54.024Z,99182.91
2022-09-17T00:09:20.838Z,99187.69
2022-09-17T00:11:47.633Z,99184.78
2022-09-17T00:14:16.208Z,99187.31
2022-09-17T00:16:46.914Z,99186.31
2022-09-17T00:19:15.882Z,99184.53
2022-09-17T00:21:42.821Z,99193.19
2022-09-17T00:24:11.119Z,99193.50
2022-09-17T00:26:37.930Z,99203.47
2022-09-17T00:29:05.181Z,99199.19
2022-09-17T00:31:32.736Z,99197.44
2022-09-17T00:34:00.533Z,99194.84
2022-09-17T00:36:28.010Z,99193.28
2022-09-17T00:38:56.020Z,99198.84
2022-09-17T00:41:24.373Z,99196.41
2022-09-17T00:43:55.753Z,99195.00
2022-09-17T00:46:43.342Z,99185.31
2022-09-17T00:49:16.886Z,99186.66
2022-09-17T00:51:47.610Z,99173.69
2022-09-17T00:54:14.444Z,99183.91
2022-09-17T00:56:41.741Z,99179.69
2022-09-17T00:59:08.536Z,99174.63
2022-09-17T01:01:35.946Z,99175.97
2022-09-17T01:04:03.127Z,99186.84
2022-09-17T01:06:33.216Z,99178.38
2022-09-17T01:09:05.755Z,99190.75
2022-09-17T01:11:47.788Z,99185.13
2022-09-17T01:14:33.434Z,99184.75
2022-09-17T01:17:10.362Z,99182.34
2022-09-17T01:19:56.036Z,99183.28
2022-09-17T01:22:25.568Z,99188.81
2022-09-17T01:25:12.614Z,99181.97
2022-09-17T01:28:12.001Z,99182.28
2022-09-17T01:30:38.777Z,99187.66
2022-09-17T01:33:08.308Z,99186.72
2022-09-17T01:35:38.129Z,99179.38
2022-09-17T01:38:15.052Z,99183.72
2022-09-17T01:40:44.697Z,99189.44
2022-09-17T01:43:29.861Z,99185.31
2022-09-17T01:45:59.813Z,99191.91
2022-09-17T01:48:29.666Z,99192.81
2022-09-17T01:50:58.533Z,99194.97
2022-09-17T01:53:28.992Z,99192.25
2022-09-17T01:55:58.428Z,99197.53
2022-09-17T01:58:34.133Z,99179.09
2022-09-17T02:01:03.626Z,99197.97
2022-09-17T02:03:42.049Z,99194.88
2022-09-17T02:06:22.565Z,99198.84
2022-09-17T02:08:52.558Z,99203.69
2022-09-17T02:11:20.398Z,99203.88
2022-09-17T02:13:50.815Z,99200.41
2022-09-17T02:16:22.271Z,99215.53
2022-09-17T02:18:51.221Z,99214.13
2022-09-17T02:21:27.324Z,99217.22
2022-09-17T02:24:11.585Z,99214.69
2022-09-17T02:26:40.328Z,99219.31
2022-09-17T02:29:14.195Z,99219.69
2022-09-17T02:31:42.128Z,99223.25
2022-09-17T02:34:09.900Z,99215.09
2022-09-17T02:36:36.980Z,99232.25
2022-09-17T02:39:04.131Z,99225.31
2022-09-17T02:41:49.630Z,99228.78
2022-09-17T02:44:26.809Z,99224.84
2022-09-17T02:47:02.301Z,99220.22
2022-09-17T02:49:47.893Z,99222.50
2022-09-17T02:52:17.432Z,99223.25
2022-09-17T02:54:47.278Z,99219.31
2022-09-17T02:57:22.170Z,99215.53
2022-09-17T02:59:54.852Z,99218.00
2022-09-17T03:02:28.654Z,99213.88
2022-09-17T03:04:56.176Z,99205.09
2022-09-17T03:07:23.361Z,99207.75
2022-09-17T03:09:50.219Z,99206.63
2022-09-17T03:12:17.295Z,99205.41
2022-09-17T03:14:44.099Z,99202.19
2022-09-17T03:17:11.381Z,99205.19
2022-09-17T03:19:38.222Z,99205.41
2022-09-17T03:22:05.043Z,99205.59
2022-09-17T03:24:31.835Z,99201.38
2022-09-17T03:26:58.602Z,99212.28
2022-09-17T03:29:25.421Z,99203.44
2022-09-17T03:31:52.216Z,99203.44
2022-09-17T03:34:19.023Z,99206.16
2022-09-17T03:36:45.852Z,99206.25
2022-09-17T03:39:12.725Z,99215.09
2022-09-17T03:41:39.511Z,99218.28
2022-09-17T03:44:06.303Z,99218.38
2022-09-17T03:46:33.155Z,99223.16
2022-09-17T03:49:00.046Z,99221.53
2022-09-17T03:51:26.842Z,99224.94
2022-09-17T03:53:53.693Z,99223.06
2022-09-17T03:56:20.512Z,99230.38
2022-09-17T03:58:47.355Z,99225.22
2022-09-17T04:01:14.320Z,99233.84
2022-09-17T04:03:41.099Z,99233.28
2022-09-17T04:06:07.956Z,99236.03
2022-09-17T04:08:34.776Z,99247.28
2022-09-17T04:11:01.561Z,99245.50
2022-09-17T04:13:28.352Z,99241.09
2022-09-17T04:15:55.290Z,99237.78
2022-09-17T04:18:22.103Z,99240.59
2022-09-17T04:20:48.935Z,99239.97
2022-09-17T04:23:15.704Z,99250.59
2022-09-17T04:25:42.543Z,99254.44
2022-09-17T04:28:09.356Z,99261.59
2022-09-17T04:30:36.139Z,99265.63
2022-09-17T04:33:03.569Z,99259.69
2022-09-17T04:35:30.383Z,99256.78
2022-09-17T04:37:57.687Z,99257.34
2022-09-17T04:40:25.799Z,99257.25
2022-09-17T04:42:56.480Z,99258.00
2022-09-17T04:45:23.621Z,99268.53
2022-09-17T04:47:50.561Z,99263.63
2022-09-17T04:50:20.917Z,99264.19
2022-09-17T04:52:48.141Z,99266.34
2022-09-17T04:55:15.408Z,99275.75
2022-09-17T04:57:53.069Z,99272.84
2022-09-17T05:00:20.675Z,99270.56
2022-09-17T05:02:48.447Z,99278.97
2022-09-17T05:05:16.276Z,99283.56
2022-09-17T05:07:43.186Z,99282.03
2022-09-17T05:10:10.788Z,99287.13
2022-09-17T05:12:37.760Z,99290.03
2022-09-17T05:15:04.971Z,99291.53
2022-09-17T05:17:31.807Z,99290.31
2022-09-17T05:19:58.623Z,99287.59
2022-09-17T05:22:25.413Z,99298.66
2022-09-17T05:24:52.213Z,99297.16
2022-09-17T05:27:18.997Z,99297.00
2022-09-17T05:29:45.817Z,99300.66
2022-09-17T05:32:12.620Z,99293.41
2022-09-17T05:34:39.415Z,99302.25
2022-09-17T05:37:06.204Z,99304.41
2022-09-17T05:39:33.019Z,99303.66
2022-09-17T05:41:59.809Z,99309.41
2022-09-17T05:44:26.647Z,99310.53
2022-09-17T05:46:53.545Z,99306.88
2022-09-17T05:49:20.443Z,99301.88
2022-09-17T05:51:47.293Z,99311.66
2022-09-17T05:54:15.172Z,99301.69
2022-09-17T05:56:41.963Z,99310.16
2022-09-17T05:59:08.846Z,99315.28
2022-09-17T06:01:35.769Z,99318.44
2022-09-17T06:04:02.705Z,99316.41
2022-09-17T06:06:29.504Z,99324.88
2022-09-17T06:08:58.892Z,99316.03
2022-09-17T06:11:25.833Z,99321.13
2022-09-17T06:13:53.673Z,99326.59
2022-09-17T06:16:20.917Z,99320.47
2022-09-17T06:18:47.955Z,99324.88
